Time;durP1;ratioP1;P1;durP2;ratioP2;P2;SDS_P1;SDS_P2;PMS_P1;PMS_P2;Temp;Humidity;BMP_temperature;BMP_pressure;BME280_temperature;BME280_humidity;BME280_pressure;Samples;Min_cycle;Max_cycle;Signal;HPM_P1;HPM_P2
2022/11/04 00:01:16;;;;;;;4.80;1.27;;;;;;;10.45;100.00;97530.97;5076589;28;20065;-57
2022/11/04 00:03:41;;;;;;;4.18;1.23;;;;;;;10.84;100.00;97577.72;5095544;28;20043;-57
2022/11/04 00:06:07;;;;;;;3.63;1.10;;;;;;;10.83;100.00;97567.47;5076357;28;20016;-58
2022/11/04 00:08:33;;;;;;;4.20;1.30;;;;;;;10.70;100.00;97553.25;5100840;27;21695;-58
2022/11/04 00:13:44;;;;;;;3.03;1.02;;;;;;;10.76;100.00;97555.13;5083068;28;20100;-58
2022/11/04 00:18:53;;;;;;;4.50;1.40;;;;;;;10.81;100.00;97546.84;5097130;28;20706;-58
2022/11/04 00:29:32;;;;;;;3.17;1.10;;;;;;;10.36;100.00;97480.81;5102595;27;20051;-58
2022/11/04 00:34:41;;;;;;;2.20;0.80;;;;;;;10.84;100.00;97510.09;5094469;28;20594;-58
2022/11/04 00:37:07;;;;;;;2.08;0.80;;;;;;;10.86;100.00;97512.50;5099749;28;20028;-59
2022/11/04 00:39:32;;;;;;;5.20;1.10;;;;;;;10.52;100.00;97462.53;5093174;28;20032;-59
2022/11/04 00:41:57;;;;;;;2.60;0.88;;;;;;;10.79;100.00;97496.81;5089914;28;20114;-58
2022/11/04 00:44:23;;;;;;;2.47;0.80;;;;;;;10.77;100.00;97491.78;5096428;28;20038;-59
2022/11/04 00:46:48;;;;;;;3.20;0.85;;;;;;;10.77;100.00;97480.56;5095284;28;20592;-58
2022/11/04 00:49:14;;;;;;;2.15;0.70;;;;;;;10.84;100.00;97493.66;5101972;28;20035;-59
2022/11/04 00:51:39;;;;;;;2.75;0.80;;;;;;;10.86;100.00;97484.72;5094565;28;20024;-59
2022/11/04 00:54:05;;;;;;;1.05;0.40;;;;;;;10.90;100.00;97483.38;5107363;28;20032;-59
2022/11/04 00:56:30;;;;;;;1.58;0.60;;;;;;;10.76;100.00;97478.94;5077220;28;20035;-57
2022/11/04 00:58:58;;;;;;;2.10;0.60;;;;;;;10.84;100.00;97483.25;5098461;28;20038;-58
2022/11/04 01:01:24;;;;;;;1.80;0.65;;;;;;;10.75;100.00;97478.13;5092632;28;20024;-59
2022/11/04 01:03:51;;;;;;;2.15;0.70;;;;;;;10.76;100.00;97471.13;5091226;28;20042;-59
2022/11/04 01:06:18;;;;;;;1.85;0.65;;;;;;;10.75;100.00;97459.94;5074205;28;20024;-59
2022/11/04 01:08:43;;;;;;;2.10;0.68;;;;;;;10.79;100.00;97463.00;5094884;28;20027;-59
2022/11/04 01:11:09;;;;;;;3.65;0.80;;;;;;;10.85;100.00;97464.91;5086676;28;20020;-58
2022/11/04 01:13:36;;;;;;;2.47;0.73;;;;;;;10.60;100.00;97425.25;5097357;28;20036;-59
2022/11/04 01:16:03;;;;;;;1.58;0.60;;;;;;;10.71;100.00;97455.25;5078250;28;20028;-59
2022/11/04 01:18:28;;;;;;;1.65;0.70;;;;;;;10.69;100.00;97455.41;5092449;28;20030;-58
2022/11/04 01:20:54;;;;;;;1.73;0.60;;;;;;;10.65;100.00;97442.94;5109373;28;20023;-60
2022/11/04 01:23:19;;;;;;;3.20;0.60;;;;;;;10.65;100.00;97450.75;5095357;28;20092;-59
2022/11/04 01:25:49;;;;;;;1.70;0.55;;;;;;;10.68;100.00;97440.81;5096509;28;20016;-58
2022/11/04 01:28:14;;;;;;;1.92;0.70;;;;;;;10.66;100.00;97437.59;5089581;28;20722;-61
2022/11/04 01:30:40;;;;;;;1.63;0.57;;;;;;;10.81;100.00;97450.63;5130872;27;20046;-60
2022/11/04 01:33:05;;;;;;;3.22;0.77;;;;;;;10.57;100.00;97442.03;5097283;28;20444;-59
2022/11/04 01:35:31;;;;;;;1.60;0.52;;;;;;;10.80;100.00;97466.41;5099054;28;20170;-58
2022/11/04 01:37:59;;;;;;;1.48;0.65;;;;;;;10.69;100.00;97473.59;5094460;28;20063;-58
2022/11/04 01:40:25;;;;;;;1.95;0.63;;;;;;;10.64;100.00;97464.72;5098309;28;20721;-59
2022/11/04 01:42:50;;;;;;;2.20;0.77;;;;;;;10.60;100.00;97456.44;5097151;28;20024;-60
2022/11/04 01:45:19;;;;;;;2.20;0.60;;;;;;;10.64;100.00;97456.91;5093295;28;20032;-58
2022/11/04 01:47:57;;;;;;;1.67;0.60;;;;;;;10.61;100.00;97457.28;5095489;28;20028;-58
2022/11/04 01:50:27;;;;;;;1.90;0.63;;;;;;;10.66;100.00;97450.59;5097626;28;20019;-59
2022/11/04 01:52:59;;;;;;;1.88;0.60;;;;;;;10.49;100.00;97454.25;5095471;28;20062;-58
2022/11/04 01:55:32;;;;;;;2.58;0.60;;;;;;;10.54;100.00;97444.97;5106581;27;20577;-58
2022/11/04 01:58:00;;;;;;;1.95;0.60;;;;;;;10.65;100.00;97441.16;5084661;28;20023;-58
2022/11/04 02:00:25;;;;;;;1.17;0.55;;;;;;;10.64;100.00;97431.75;5100059;28;20026;-57
2022/11/04 02:02:54;;;;;;;1.65;0.60;;;;;;;10.50;100.00;97437.69;5101306;27;20027;-59
2022/11/04 02:05:20;;;;;;;1.80;0.65;;;;;;;10.43;100.00;97432.38;5099425;28;20024;-59
2022/11/04 02:07:49;;;;;;;1.27;0.50;;;;;;;10.42;100.00;97424.75;5077896;28;20568;-57
2022/11/04 02:10:15;;;;;;;1.45;0.60;;;;;;;10.34;100.00;97416.00;5080906;28;20032;-58
2022/11/04 02:12:49;;;;;;;1.05;0.40;;;;;;;10.29;100.00;97415.69;5092965;28;20088;-58
2022/11/04 02:15:42;;;;;;;0.93;0.30;;;;;;;10.09;100.00;97399.72;5082636;28;20077;-58
2022/11/04 02:18:39;;;;;;;0.63;0.20;;;;;;;10.27;100.00;97403.88;5110500;27;20035;-58
2022/11/04 02:21:23;;;;;;;1.50;0.47;;;;;;;10.27;100.00;97396.06;5093128;28;20026;-58
2022/11/04 02:24:10;;;;;;;1.80;0.45;;;;;;;10.26;100.00;97397.03;5097556;28;20027;-58
2022/11/04 02:27:10;;;;;;;1.00;0.38;;;;;;;10.26;100.00;97395.25;5112827;27;20592;-58
2022/11/04 02:30:11;;;;;;;0.85;0.30;;;;;;;10.39;100.00;97376.53;5096829;27;20544;-58
2022/11/04 02:32:36;;;;;;;0.47;0.20;;;;;;;10.31;100.00;97385.19;5098219;28;20359;-58
2022/11/04 02:35:04;;;;;;;0.65;0.30;;;;;;;10.18;100.00;97375.34;5099741;28;20046;-57
2022/11/04 02:37:45;;;;;;;2.53;0.40;;;;;;;10.26;100.00;97376.25;5099090;28;20028;-57
2022/11/04 02:40:34;;;;;;;0.93;0.25;;;;;;;10.27;100.00;97375.28;5099814;28;20036;-58
2022/11/04 02:43:17;;;;;;;0.70;0.20;;;;;;;10.28;100.00;97361.31;5069737;28;20409;-58
2022/11/04 02:45:51;;;;;;;0.32;0.10;;;;;;;10.23;100.00;97356.63;5090478;28;20184;-57
2022/11/04 02:48:20;;;;;;;0.38;0.15;;;;;;;10.25;100.00;97356.47;5098274;28;20032;-57
2022/11/04 02:51:07;;;;;;;0.20;0.20;;;;;;;10.23;100.00;97337.66;5095517;28;20150;-57
2022/11/04 02:53:40;;;;;;;0.35;0.15;;;;;;;10.17;100.00;97332.16;5092860;27;20023;-58
2022/11/04 02:56:05;;;;;;;0.22;0.10;;;;;;;10.24;100.00;97341.84;5099231;28;20038;-58
2022/11/04 02:58:35;;;;;;;3.83;0.20;;;;;;;10.16;100.00;97359.09;5113754;27;20019;-58
2022/11/04 03:01:01;;;;;;;;;;;;;;;10.19;100.00;97365.75;5097123;28;20106;-58
2022/11/04 03:03:30;;;;;;;0.25;0.20;;;;;;;10.13;100.00;97374.22;5097969;28;20000;-58
2022/11/04 03:05:55;;;;;;;0.20;0.20;;;;;;;9.82;100.00;97328.34;5100001;28;20605;-58
2022/11/04 03:08:46;;;;;;;1.92;0.40;;;;;;;10.03;100.00;97368.47;5099657;28;20127;-58
2022/11/04 03:11:17;;;;;;;3.50;0.20;;;;;;;10.01;100.00;97361.63;5097474;28;20162;-57
2022/11/04 03:13:56;;;;;;;2.58;0.30;;;;;;;10.07;100.00;97352.34;5097812;28;20027;-58
2022/11/04 03:16:49;;;;;;;0.53;0.20;;;;;;;9.93;100.00;97338.34;5101956;28;20450;-57
2022/11/04 03:19:48;;;;;;;0.82;0.30;;;;;;;9.87;100.00;97330.41;5092948;28;20115;-58
2022/11/04 03:22:16;;;;;;;0.70;0.20;;;;;;;9.78;100.00;97325.28;5086150;28;20032;-58
2022/11/04 03:24:44;;;;;;;1.45;0.30;;;;;;;9.96;100.00;97329.38;5066891;28;20486;-57
2022/11/04 03:27:15;;;;;;;1.48;0.30;;;;;;;10.04;100.00;97321.53;5098390;28;20033;-57
2022/11/04 03:29:52;;;;;;;0.80;0.30;;;;;;;10.16;100.00;97320.13;5107613;27;20512;-57
2022/11/04 03:32:44;;;;;;;0.50;0.20;;;;;;;10.09;100.00;97331.41;5092121;28;20548;-58
2022/11/04 03:35:10;;;;;;;0.20;0.20;;;;;;;10.16;100.00;97327.94;5094028;28;20035;-57
2022/11/04 03:37:36;;;;;;;0.98;0.40;;;;;;;10.20;100.00;97318.00;5082201;28;20124;-57
2022/11/04 03:40:02;;;;;;;0.73;0.20;;;;;;;10.31;100.00;97301.22;5097377;28;20118;-57
2022/11/04 03:42:29;;;;;;;0.98;0.38;;;;;;;10.33;100.00;97286.28;5082888;28;20126;-58
2022/11/04 03:44:56;;;;;;;0.35;0.10;;;;;;;10.24;100.00;97275.13;5097557;28;20027;-55
2022/11/04 03:47:23;;;;;;;1.83;0.32;;;;;;;10.24;100.00;97275.13;5099926;28;20028;-57
2022/11/04 03:49:51;;;;;;;1.00;0.10;;;;;;;10.25;100.00;97258.56;5090785;28;20031;-58
2022/11/04 03:52:17;;;;;;;0.47;0.20;;;;;;;10.12;100.00;97279.13;5094029;28;20477;-58
2022/11/04 03:54:43;;;;;;;0.50;0.10;;;;;;;10.22;100.00;97302.25;5096207;28;20050;-58
2022/11/04 03:57:21;;;;;;;0.28;0.10;;;;;;;10.23;100.00;97304.69;5099666;28;20031;-58
2022/11/04 04:00:17;;;;;;;0.57;0.20;;;;;;;10.36;100.00;97338.69;5102606;27;20030;-59
2022/11/04 04:03:07;;;;;;;0.10;0.10;;;;;;;10.39;100.00;97359.16;5080479;28;20035;-58
2022/11/04 04:05:39;;;;;;;0.38;0.10;;;;;;;10.42;100.00;97372.78;5088232;28;20027;-58
2022/11/04 04:08:13;;;;;;;0.45;0.20;;;;;;;10.40;100.00;97391.13;5094893;28;20856;-59
2022/11/04 04:10:44;;;;;;;0.75;0.10;;;;;;;10.41;100.00;97395.34;5100408;28;20032;-59
2022/11/04 04:13:18;;;;;;;0.40;0.17;;;;;;;10.41;100.00;97376.38;5097968;28;20031;-58
2022/11/04 04:16:05;;;;;;;0.30;0.20;;;;;;;10.42;100.00;97411.75;5108574;27;20032;-59
2022/11/04 04:18:46;;;;;;;0.60;0.20;;;;;;;10.38;100.00;97419.88;5112818;27;20042;-59
2022/11/04 04:21:16;;;;;;;1.75;0.32;;;;;;;10.30;100.00;97417.31;5095915;28;20242;-59
2022/11/04 04:29:33;;;;;;;0.47;0.20;;;;;;;9.97;100.00;97409.72;5042979;28;20043;-59
2022/11/04 04:31:59;;;;;;;0.47;0.10;;;;;;;9.95;100.00;97403.09;5074758;28;20051;-58
2022/11/04 04:34:29;;;;;;;0.20;0.10;;;;;;;9.85;100.00;97376.50;5097792;28;20027;-59
2022/11/04 04:36:59;;;;;;;0.17;0.10;;;;;;;9.80;100.00;97361.44;5098547;28;20038;-60
2022/11/04 04:44:58;;;;;;;0.25;0.10;;;;;;;9.97;100.00;97356.97;5107172;27;20107;-59
2022/11/04 04:47:26;;;;;;;0.10;0.10;;;;;;;9.90;100.00;97350.84;5074059;28;20331;-59
2022/11/04 04:49:59;;;;;;;0.70;0.20;;;;;;;9.88;100.00;97364.00;5074181;28;20067;-59
2022/11/04 04:52:27;;;;;;;0.45;0.15;;;;;;;10.05;100.00;97369.91;5098454;28;20035;-59
2022/11/04 04:54:53;;;;;;;0.03;0.00;;;;;;;10.34;100.00;97379.63;5093739;28;20085;-58
2022/11/04 04:57:18;;;;;;;0.15;0.10;;;;;;;10.34;100.00;97376.25;5092958;28;20031;-58
2022/11/04 04:59:44;;;;;;;0.30;0.13;;;;;;;10.25;100.00;97364.25;5096637;28;20024;-58
2022/11/04 05:02:09;;;;;;;1.48;0.30;;;;;;;10.28;100.00;97364.72;5073393;28;20067;-60
2022/11/04 05:04:34;;;;;;;0.50;0.10;;;;;;;10.38;100.00;97367.91;5103196;28;20406;-58
2022/11/04 05:07:00;;;;;;;0.10;0.00;;;;;;;10.24;100.00;97327.09;5083418;28;20436;-59
2022/11/04 05:09:26;;;;;;;0.63;0.20;;;;;;;10.65;100.00;97376.16;5074799;28;20012;-59
2022/11/04 05:11:51;;;;;;;0.10;0.10;;;;;;;10.51;100.00;97384.72;5097500;28;20547;-59
2022/11/04 05:14:17;;;;;;;0.55;0.20;;;;;;;10.37;100.00;97391.50;5082523;28;20030;-58
2022/11/04 05:16:42;;;;;;;0.40;0.10;;;;;;;10.11;100.00;97417.75;5089689;28;20036;-58
2022/11/04 05:19:07;;;;;;;0.43;0.20;;;;;;;10.11;97.79;97425.53;5093699;28;20044;-59
2022/11/04 05:21:33;;;;;;;0.32;0.10;;;;;;;9.84;99.60;97411.22;5094731;28;20039;-58
2022/11/04 05:23:58;;;;;;;0.22;0.10;;;;;;;9.95;95.96;97413.47;5082784;28;20135;-58
2022/11/04 05:26:24;;;;;;;0.40;0.10;;;;;;;9.86;97.65;97404.09;5119284;27;20073;-59
2022/11/04 05:28:49;;;;;;;1.02;0.30;;;;;;;9.68;97.39;97406.94;5098078;28;20036;-58
2022/11/04 05:31:15;;;;;;;0.90;0.28;;;;;;;9.67;97.00;97400.09;5080724;28;20036;-60
2022/11/04 05:33:40;;;;;;;0.73;0.28;;;;;;;9.68;99.70;97394.75;5083568;28;20034;-58
2022/11/04 05:36:12;;;;;;;0.65;0.20;;;;;;;9.71;100.00;97388.41;5116858;27;20032;-58
2022/11/04 05:38:38;;;;;;;0.13;0.10;;;;;;;9.83;99.87;97392.25;5103051;28;20035;-58
2022/11/04 05:41:04;;;;;;;0.52;0.25;;;;;;;10.02;98.24;97396.22;5102919;28;20088;-58
2022/11/04 05:43:30;;;;;;;1.13;0.28;;;;;;;10.03;87.55;97379.66;5101231;27;20785;-58
2022/11/04 05:45:57;;;;;;;0.10;0.10;;;;;;;10.27;80.84;97378.69;5083311;28;20035;-59
2022/11/04 05:48:23;;;;;;;0.28;0.10;;;;;;;10.22;78.82;97395.78;5129217;27;20100;-58
2022/11/04 05:50:48;;;;;;;0.15;0.10;;;;;;;10.31;77.15;97363.59;5095487;28;20457;-59
2022/11/04 05:53:13;;;;;;;0.20;0.10;;;;;;;10.43;77.32;97349.22;5084614;28;20023;-59
2022/11/04 05:55:39;;;;;;;1.55;0.20;;;;;;;10.69;71.09;97361.03;5085258;28;20479;-59
2022/11/04 05:58:04;;;;;;;0.10;0.10;;;;;;;10.74;73.19;97384.72;5084599;28;20028;-59
2022/11/04 06:00:30;;;;;;;0.32;0.10;;;;;;;10.68;78.52;97326.44;5091791;27;21883;-58
2022/11/04 06:02:56;;;;;;;1.55;0.20;;;;;;;10.78;78.11;97313.16;5096354;28;20019;-59
2022/11/04 06:05:22;;;;;;;0.10;0.10;;;;;;;10.68;74.84;97297.84;5081293;28;20031;-59
2022/11/04 06:07:47;;;;;;;0.22;0.10;;;;;;;10.84;76.48;97278.66;5098789;28;20020;-59
2022/11/04 06:10:13;;;;;;;0.22;0.10;;;;;;;10.65;76.39;97245.38;5080509;28;20554;-59
2022/11/04 06:12:39;;;;;;;0.32;0.10;;;;;;;10.87;72.27;97273.09;5103705;28;20853;-59
2022/11/04 06:15:05;;;;;;;1.27;0.20;;;;;;;10.91;70.24;97309.94;5081452;28;20050;-59
2022/11/04 06:17:30;;;;;;;0.25;0.10;;;;;;;10.94;75.11;97257.59;5077296;28;20398;-60
2022/11/04 06:19:56;;;;;;;0.63;0.20;;;;;;;10.81;70.92;97288.63;5096671;28;20028;-59
2022/11/04 06:22:21;;;;;;;0.35;0.20;;;;;;;10.83;72.14;97232.84;5084209;28;20113;-60
2022/11/04 06:24:47;;;;;;;0.30;0.13;;;;;;;10.90;75.67;97218.13;5095856;28;20449;-59
2022/11/04 06:27:12;;;;;;;0.28;0.10;;;;;;;11.10;65.65;97220.97;5082877;28;20031;-59
2022/11/04 06:29:39;;;;;;;0.57;0.13;;;;;;;10.86;70.08;97196.09;5081883;28;20031;-58
2022/11/04 06:32:15;;;;;;;0.45;0.17;;;;;;;11.07;69.69;97190.13;5096458;27;20028;-61
2022/11/04 06:34:40;;;;;;;0.10;0.10;;;;;;;11.12;72.65;97190.38;5113568;27;20038;-58
2022/11/04 06:37:07;;;;;;;0.20;0.20;;;;;;;11.19;77.95;97187.88;5115496;27;20477;-59
2022/11/04 06:39:32;;;;;;;0.40;0.10;;;;;;;11.26;70.63;97182.72;5097890;28;20100;-60
2022/11/04 06:41:58;;;;;;;0.57;0.20;;;;;;;11.39;69.86;97159.47;5081729;28;20561;-59
2022/11/04 06:44:23;;;;;;;0.52;0.20;;;;;;;11.53;63.40;97155.97;5083887;28;20042;-59
2022/11/04 06:46:50;;;;;;;0.17;0.15;;;;;;;11.64;68.74;97149.44;5111785;27;20097;-59
2022/11/04 06:49:18;;;;;;;0.25;0.10;;;;;;;11.50;68.77;97151.16;5099916;28;20032;-59
2022/11/04 06:51:44;;;;;;;1.13;0.17;;;;;;;11.66;66.47;97152.69;5081749;28;20541;-59
2022/11/04 06:54:10;;;;;;;0.20;0.10;;;;;;;11.41;67.03;97156.63;5084715;28;20039;-59
2022/11/04 06:56:35;;;;;;;1.38;0.10;;;;;;;11.61;67.80;97169.84;5098493;28;20425;-59
2022/11/04 06:59:02;;;;;;;0.10;0.10;;;;;;;11.69;63.82;97172.34;5094573;28;20024;-59
2022/11/04 07:01:30;;;;;;;0.45;0.10;;;;;;;11.68;65.34;97166.34;5083003;28;20035;-59
2022/11/04 07:03:57;;;;;;;0.10;0.10;;;;;;;11.38;63.25;97157.03;5096126;28;20055;-62
2022/11/04 07:06:23;;;;;;;0.05;0.05;;;;;;;11.64;62.74;97187.72;5080935;28;20031;-59
2022/11/04 07:08:50;;;;;;;0.22;0.10;;;;;;;11.53;63.52;97171.59;5093459;28;20107;-59
2022/11/04 07:11:17;;;;;;;0.10;0.10;;;;;;;11.84;59.71;97213.94;5083091;28;20028;-59
2022/11/04 07:13:42;;;;;;;0.20;0.10;;;;;;;11.67;59.70;97222.00;5097197;28;20085;-59
2022/11/04 07:16:08;;;;;;;0.60;0.20;;;;;;;11.19;60.47;97177.47;5116158;27;20385;-60
2022/11/04 07:18:34;;;;;;;0.20;0.15;;;;;;;11.41;60.03;97243.34;5083485;28;20497;-58
2022/11/04 07:21:00;;;;;;;0.25;0.13;;;;;;;11.34;60.82;97252.88;5097744;28;20558;-59
2022/11/04 07:23:26;;;;;;;0.15;0.10;;;;;;;11.30;62.76;97259.44;5091115;28;20031;-58
2022/11/04 07:25:53;;;;;;;0.32;0.13;;;;;;;11.35;60.94;97285.72;5095136;28;20027;-58
2022/11/04 07:28:19;;;;;;;0.38;0.20;;;;;;;11.23;62.05;97289.78;5099426;28;20032;-58
2022/11/04 07:30:45;;;;;;;0.63;0.20;;;;;;;11.12;62.39;97293.63;5099799;28;20038;-58
2022/11/04 07:33:11;;;;;;;0.43;0.20;;;;;;;11.03;62.77;97300.72;5095161;28;20024;-59
2022/11/04 07:35:36;;;;;;;0.77;0.20;;;;;;;11.10;64.40;97304.22;5096531;28;20043;-59
2022/11/04 07:38:02;;;;;;;0.55;0.20;;;;;;;11.06;66.63;97304.75;5110955;27;20035;-58
2022/11/04 07:40:29;;;;;;;0.50;0.20;;;;;;;11.04;65.81;97324.94;5079623;28;20105;-58
2022/11/04 07:42:54;;;;;;;0.73;0.15;;;;;;;10.86;65.63;97320.06;5099913;28;20032;-58
2022/11/04 07:45:20;;;;;;;0.40;0.15;;;;;;;10.85;66.52;97329.66;5099382;27;20480;-58
2022/11/04 07:47:45;;;;;;;0.38;0.20;;;;;;;10.82;65.49;97324.81;5091908;27;20062;-59
2022/11/04 07:50:11;;;;;;;0.20;0.20;;;;;;;10.81;63.93;97341.41;5072461;28;20021;-59
2022/11/04 07:52:36;;;;;;;0.65;0.22;;;;;;;10.51;66.83;97299.78;5079988;28;20039;-58
2022/11/04 07:55:02;;;;;;;0.65;0.20;;;;;;;10.70;64.62;97334.06;5099794;27;20673;-59
2022/11/04 07:57:28;;;;;;;0.60;0.20;;;;;;;10.69;65.58;97340.22;5083026;27;20035;-59
2022/11/04 07:59:53;;;;;;;2.58;0.40;;;;;;;10.76;63.91;97335.94;5096668;28;20047;-60
2022/11/04 08:02:18;;;;;;;1.15;0.25;;;;;;;10.71;64.46;97336.44;5092821;28;20027;-60
2022/11/04 08:04:44;;;;;;;0.55;0.15;;;;;;;10.71;64.34;97325.25;5115038;27;20732;-60
2022/11/04 08:07:09;;;;;;;0.45;0.10;;;;;;;10.69;63.85;97324.63;5097833;28;20027;-60
2022/11/04 08:09:35;;;;;;;0.38;0.17;;;;;;;10.69;64.69;97324.63;5107960;27;20043;-60
2022/11/04 08:12:02;;;;;;;0.43;0.20;;;;;;;10.75;61.41;97313.50;5096695;28;20028;-59
2022/11/04 08:14:27;;;;;;;0.20;0.20;;;;;;;10.72;64.84;97313.88;5095351;28;20055;-60
2022/11/04 08:16:52;;;;;;;0.50;0.17;;;;;;;10.67;65.33;97305.81;5112104;27;20042;-60
2022/11/04 08:19:18;;;;;;;0.40;0.13;;;;;;;10.58;65.00;97311.06;5089521;28;20371;-60
2022/11/04 08:21:43;;;;;;;0.47;0.22;;;;;;;10.57;65.99;97308.66;5092634;28;21246;-60
2022/11/04 08:24:09;;;;;;;0.30;0.20;;;;;;;10.47;70.85;97321.09;5095506;28;20030;-59
2022/11/04 08:26:34;;;;;;;0.65;0.20;;;;;;;10.39;71.91;97308.97;5093139;28;20041;-59
2022/11/04 08:29:01;;;;;;;0.32;0.10;;;;;;;10.35;74.02;97307.72;5099609;28;20533;-59
2022/11/04 08:31:29;;;;;;;1.52;0.40;;;;;;;10.36;73.90;97304.13;5093616;28;20491;-58
2022/11/04 08:33:55;;;;;;;1.77;0.20;;;;;;;10.26;71.74;97306.09;5111551;27;20376;-59
2022/11/04 08:36:33;;;;;;;1.33;0.30;;;;;;;10.19;73.76;97304.22;5094975;28;20498;-58
2022/11/04 08:38:59;;;;;;;0.20;0.10;;;;;;;10.16;76.16;97301.97;5095921;28;20020;-59
2022/11/04 08:41:28;;;;;;;0.93;0.22;;;;;;;10.18;81.01;97301.78;5125708;27;20558;-59
2022/11/04 08:43:59;;;;;;;0.90;0.30;;;;;;;10.24;76.63;97297.69;5096558;28;20024;-60
2022/11/04 08:46:26;;;;;;;0.55;0.25;;;;;;;10.27;79.70;97294.75;5096132;28;20024;-60
2022/11/04 08:48:52;;;;;;;0.45;0.20;;;;;;;10.00;84.30;97260.53;5098054;28;20293;-60
2022/11/04 08:51:20;;;;;;;1.85;0.60;;;;;;;9.95;74.97;97262.88;5080437;28;20482;-59
2022/11/04 08:53:46;;;;;;;1.77;0.60;;;;;;;10.16;72.62;97278.59;5078332;28;20117;-59
2022/11/04 08:56:33;;;;;;;3.58;1.17;;;;;;;10.16;74.24;97282.97;5112220;27;20031;-60
2022/11/04 08:59:00;;;;;;;3.63;0.65;;;;;;;10.26;69.53;97293.13;5088179;28;20032;-59
2022/11/04 09:01:27;;;;;;;1.95;0.82;;;;;;;10.27;70.44;97281.75;5092839;28;20027;-60
2022/11/04 09:03:52;;;;;;;2.13;0.50;;;;;;;10.62;64.97;97285.53;5097172;28;20035;-60
2022/11/04 09:06:22;;;;;;;3.60;0.80;;;;;;;10.81;63.41;97275.63;5116369;27;20031;-59
2022/11/04 09:08:47;;;;;;;2.63;0.85;;;;;;;10.82;63.72;97288.41;5075933;28;20591;-59
2022/11/04 09:11:15;;;;;;;1.83;0.57;;;;;;;10.75;61.92;97257.16;5094128;28;20568;-60
2022/11/04 09:13:40;;;;;;;2.40;0.90;;;;;;;10.91;63.07;97287.34;5110023;27;20055;-60
2022/11/04 09:16:07;;;;;;;2.15;0.80;;;;;;;10.96;62.51;97277.22;5097041;28;21726;-60
2022/11/04 09:18:33;;;;;;;2.65;0.77;;;;;;;11.02;63.09;97288.69;5094418;28;20031;-60
2022/11/04 09:20:59;;;;;;;4.68;1.90;;;;;;;11.01;63.67;97286.28;5107374;27;22154;-59
2022/11/04 09:23:25;;;;;;;3.70;1.10;;;;;;;10.96;65.28;97285.03;5091586;28;20038;-59
2022/11/04 09:25:50;;;;;;;1.98;0.60;;;;;;;10.94;65.53;97292.19;5096493;27;20027;-60
2022/11/04 09:28:15;;;;;;;2.08;0.65;;;;;;;11.02;66.12;97287.88;5099750;27;20036;-60
2022/11/04 09:30:41;;;;;;;3.58;0.80;;;;;;;10.94;68.16;97287.00;5099860;27;20660;-60
2022/11/04 09:33:06;;;;;;;2.72;0.88;;;;;;;10.88;66.41;97240.09;5098290;27;20044;-59
2022/11/04 09:35:32;;;;;;;3.20;0.50;;;;;;;11.26;69.70;97266.81;5098480;28;20058;-59
2022/11/04 09:37:59;;;;;;;4.22;1.10;;;;;;;11.46;63.05;97253.19;5097999;28;20474;-60
2022/11/04 09:40:25;;;;;;;2.75;0.95;;;;;;;11.58;62.20;97248.34;5092202;27;20035;-59
2022/11/04 09:43:03;;;;;;;2.05;0.80;;;;;;;11.72;59.74;97258.69;5082311;28;20027;-60
2022/11/04 09:45:32;;;;;;;1.95;0.75;;;;;;;11.79;60.23;97255.34;5089620;27;20040;-59
2022/11/04 09:48:02;;;;;;;1.52;0.57;;;;;;;11.84;61.48;97245.97;5090583;28;20059;-59
2022/11/04 09:50:41;;;;;;;0.98;0.40;;;;;;;11.65;62.10;97236.19;5110149;27;20039;-59
2022/11/04 09:53:17;;;;;;;0.75;0.25;;;;;;;11.65;65.39;97251.81;5100307;28;20062;-59
2022/11/04 09:55:56;;;;;;;12.20;4.47;;;;;;;11.61;64.79;97243.56;5097824;28;20274;-59
2022/11/04 09:58:21;;;;;;;1.70;0.50;;;;;;;11.78;64.38;97251.94;5114803;27;20454;-59
2022/11/04 10:01:10;;;;;;;1.55;0.30;;;;;;;11.68;64.03;97226.22;5080038;28;20023;-59
2022/11/04 10:04:07;;;;;;;0.93;0.30;;;;;;;12.01;61.22;97264.81;5098033;28;20128;-59
2022/11/04 10:07:13;;;;;;;0.68;0.30;;;;;;;12.24;56.52;97258.59;5087123;28;20044;-59
2022/11/04 10:10:07;;;;;;;0.82;0.22;;;;;;;12.28;59.84;97271.06;5096146;28;20030;-60
2022/11/04 10:13:01;;;;;;;0.35;0.15;;;;;;;12.36;60.67;97269.28;5098790;28;20034;-59
2022/11/04 10:15:32;;;;;;;0.40;0.10;;;;;;;12.50;58.16;97258.81;5093470;27;20440;-60
2022/11/04 10:18:25;;;;;;;0.40;0.20;;;;;;;12.38;61.82;97264.72;5082596;28;20081;-60
2022/11/04 10:21:23;;;;;;;0.50;0.20;;;;;;;12.36;62.47;97251.06;5082736;28;20033;-60
2022/11/04 10:24:17;;;;;;;0.57;0.22;;;;;;;12.57;57.03;97248.41;5082116;27;20050;-59
2022/11/04 10:26:50;;;;;;;3.15;0.40;;;;;;;12.68;55.72;97249.69;5079736;28;20984;-59
2022/11/04 10:29:25;;;;;;;1.42;0.50;;;;;;;12.73;56.60;97249.91;5084471;28;20393;-59
2022/11/04 10:31:52;;;;;;;1.13;0.40;;;;;;;12.86;55.33;97236.13;5082969;27;20035;-59
2022/11/04 10:34:36;;;;;;;1.10;0.40;;;;;;;12.83;58.27;97236.50;5084782;28;20028;-59
2022/11/04 10:37:03;;;;;;;2.47;0.40;;;;;;;12.77;59.03;97239.91;5100851;27;20111;-59
2022/11/04 10:39:30;;;;;;;1.25;0.40;;;;;;;12.74;57.04;97246.31;5082825;28;20036;-59
2022/11/04 10:41:57;;;;;;;2.67;0.43;;;;;;;12.79;57.44;97230.09;5077558;27;20641;-60
2022/11/04 10:44:32;;;;;;;0.90;0.32;;;;;;;12.72;59.71;97211.78;5095264;27;20059;-59
2022/11/04 10:47:13;;;;;;;1.05;0.38;;;;;;;12.98;56.36;97233.81;5080697;27;20130;-59
2022/11/04 10:50:12;;;;;;;0.85;0.30;;;;;;;12.98;57.71;97229.38;5086108;28;20028;-60
2022/11/04 10:52:38;;;;;;;0.93;0.30;;;;;;;12.84;56.38;97184.16;5065124;28;20558;-59
2022/11/04 10:55:42;;;;;;;5.20;0.60;;;;;;;13.15;55.98;97210.78;5085132;28;20028;-58
2022/11/04 10:58:32;;;;;;;1.20;0.50;;;;;;;13.18;55.41;97200.78;5100832;27;20115;-59
2022/11/04 11:00:58;;;;;;;0.43;0.15;;;;;;;13.17;55.44;97198.34;5063986;28;20466;-58
2022/11/04 11:03:28;;;;;;;1.85;0.30;;;;;;;13.03;57.37;97167.00;5082013;28;20640;-59
2022/11/04 11:06:10;;;;;;;1.55;0.40;;;;;;;13.21;57.28;97182.09;5097949;27;20119;-59
2022/11/04 11:08:37;;;;;;;0.75;0.32;;;;;;;13.28;57.36;97201.19;5063593;28;20036;-60
2022/11/04 11:11:05;;;;;;;1.42;0.40;;;;;;;13.10;56.17;97169.59;5070779;28;20053;-59
2022/11/04 11:13:40;;;;;;;0.50;0.20;;;;;;;13.33;56.94;97195.41;5082319;28;20303;-60
2022/11/04 11:16:17;;;;;;;1.27;0.25;;;;;;;13.28;59.79;97195.97;5094910;27;20111;-59
2022/11/04 11:18:42;;;;;;;1.48;0.47;;;;;;;13.06;62.37;97153.53;5095750;27;20038;-59
2022/11/04 11:21:11;;;;;;;1.27;0.30;;;;;;;13.34;59.79;97194.41;5087040;28;20028;-59
2022/11/04 11:23:47;;;;;;;1.30;0.35;;;;;;;13.49;61.20;97202.09;5083150;28;20028;-59
2022/11/04 11:26:29;;;;;;;0.75;0.20;;;;;;;13.52;56.74;97201.69;5089924;28;20157;-59
2022/11/04 11:28:56;;;;;;;0.55;0.20;;;;;;;13.52;58.71;97193.84;5091595;28;21133;-59
2022/11/04 11:31:25;;;;;;;0.80;0.20;;;;;;;13.35;59.63;97161.28;5083292;28;20114;-59
2022/11/04 11:33:56;;;;;;;1.30;0.40;;;;;;;13.65;54.12;97201.72;5075954;28;20104;-58
2022/11/04 11:36:33;;;;;;;0.80;0.35;;;;;;;13.60;55.13;97193.69;5082968;28;20031;-59
2022/11/04 11:38:59;;;;;;;8.30;1.90;;;;;;;13.68;53.21;97197.91;5081837;28;20039;-59
2022/11/04 11:41:32;;;;;;;3.20;0.60;;;;;;;13.73;55.46;97185.06;5081723;28;20107;-59
2022/11/04 11:44:22;;;;;;;3.78;0.60;;;;;;;13.71;56.21;97179.22;5099087;27;20478;-59
2022/11/04 11:46:54;;;;;;;0.95;0.30;;;;;;;13.69;54.05;97168.19;5081809;28;20031;-59
2022/11/04 11:49:27;;;;;;;1.30;0.40;;;;;;;13.88;55.33;97177.03;5084598;28;20175;-59
2022/11/04 11:51:53;;;;;;;0.65;0.20;;;;;;;13.93;54.45;97169.38;5090446;28;20031;-59
2022/11/04 11:54:24;;;;;;;1.73;0.40;;;;;;;14.04;52.92;97170.59;5082988;28;20129;-60
2022/11/04 11:56:54;;;;;;;1.00;0.30;;;;;;;14.07;52.29;97164.16;5084926;28;20020;-60
2022/11/04 11:59:37;;;;;;;0.85;0.30;;;;;;;14.19;49.02;97165.94;5082458;28;20047;-58
2022/11/04 12:02:24;;;;;;;0.40;0.25;;;;;;;14.23;48.82;97167.13;5098522;27;20064;-59
2022/11/04 12:04:50;;;;;;;1.33;0.32;;;;;;;14.30;47.12;97151.44;5090526;28;20020;-59
2022/11/04 12:07:26;;;;;;;1.58;0.30;;;;;;;14.18;49.69;97125.16;5083350;28;20024;-59
2022/11/04 12:10:22;;;;;;;2.63;0.55;;;;;;;14.36;48.88;97145.41;5097248;27;20027;-59
2022/11/04 12:12:59;;;;;;;2.53;0.45;;;;;;;14.31;51.05;97145.22;5082606;28;20032;-59
2022/11/04 12:15:40;;;;;;;0.98;0.30;;;;;;;14.20;49.61;97119.69;5082038;28;20028;-60